Time;durP1;ratioP1;P1;durP2;ratioP2;P2;SDS_P1;SDS_P2;PMS_P1;PMS_P2;Temp;Humidity;BMP_temperature;BMP_pressure;BME280_temperature;BME280_humidity;BME280_pressure;Samples;Min_cycle;Max_cycle;Signal;HPM_P1;HPM_P2
2023/06/28 00:01:15;;;;;;;0.30;0.30;;;;;;;16.08;78.43;100164.84;5046321;28;20085;-62
2023/06/28 00:03:41;;;;;;;0.30;0.30;;;;;;;16.08;78.63;100165.72;5046311;28;20030;-62
2023/06/28 00:06:07;;;;;;;0.20;0.20;;;;;;;16.06;78.32;100162.28;5046566;28;20033;-61
2023/06/28 00:08:32;;;;;;;0.20;0.20;;;;;;;16.07;78.69;100163.16;5046417;28;20052;-62
2023/06/28 00:10:58;;;;;;;0.30;0.30;;;;;;;16.05;78.55;100167.56;5046224;28;20021;-62
2023/06/28 00:13:24;;;;;;;0.20;0.20;;;;;;;16.04;78.92;100166.72;5046223;28;20025;-61
2023/06/28 00:15:49;;;;;;;0.20;0.20;;;;;;;16.05;78.71;100170.19;5045941;28;20036;-63
2023/06/28 00:18:15;;;;;;;0.20;0.20;;;;;;;16.05;78.64;100170.19;5046111;28;20052;-62
2023/06/28 00:20:43;;;;;;;0.20;0.20;;;;;;;15.99;78.86;100163.41;5046114;28;20025;-62
2023/06/28 00:23:09;;;;;;;0.20;0.20;;;;;;;16.00;78.66;100178.22;5046166;28;20021;-62
2023/06/28 00:25:35;;;;;;;0.30;0.30;;;;;;;16.01;78.59;100176.47;5045804;28;20074;-62
2023/06/28 00:28:01;;;;;;;0.30;0.30;;;;;;;15.96;78.45;100176.56;5046152;28;20033;-62
2023/06/28 00:30:26;;;;;;;0.20;0.20;;;;;;;15.98;78.69;100187.88;5045713;28;20024;-62
2023/06/28 00:32:52;;;;;;;0.30;0.30;;;;;;;15.96;78.37;100187.91;5045890;28;20104;-62
2023/06/28 00:35:18;;;;;;;0.30;0.30;;;;;;;15.96;78.54;100193.13;5045558;28;20045;-62
2023/06/28 00:37:43;;;;;;;0.30;0.30;;;;;;;15.83;78.44;100177.00;5045897;28;20259;-62
2023/06/28 00:40:10;;;;;;;0.20;0.20;;;;;;;15.92;78.68;100188.94;5045693;28;20049;-63
2023/06/28 00:42:35;;;;;;;0.30;0.30;;;;;;;15.83;78.47;100176.16;5045772;28;20028;-63
2023/06/28 00:45:01;;;;;;;0.20;0.20;;;;;;;15.94;78.53;100194.09;5045467;28;20462;-62
2023/06/28 00:47:30;;;;;;;0.20;0.20;;;;;;;15.92;78.87;100199.41;5045784;28;20029;-62
2023/06/28 00:49:57;;;;;;;0.28;0.28;;;;;;;15.91;78.74;100202.91;5045310;28;20017;-62
2023/06/28 00:52:23;;;;;;;0.20;0.20;;;;;;;15.79;78.53;100185.00;5045606;28;20080;-62
2023/06/28 00:54:49;;;;;;;0.30;0.30;;;;;;;15.90;78.52;100202.94;5045518;28;20018;-62
2023/06/28 00:57:15;;;;;;;0.30;0.30;;;;;;;15.89;79.03;100206.50;5045566;28;20085;-62
2023/06/28 00:59:41;;;;;;;0.22;0.22;;;;;;;15.86;79.04;100200.44;5045547;28;20072;-62
2023/06/28 01:02:06;;;;;;;0.50;0.50;;;;;;;15.85;79.62;100208.34;5045664;28;20021;-62
2023/06/28 01:04:33;;;;;;;0.30;0.30;;;;;;;15.85;79.93;100211.81;5045223;28;20496;-62
2023/06/28 01:07:00;;;;;;;0.30;0.30;;;;;;;15.85;80.50;100214.44;5045461;28;20055;-62
2023/06/28 01:09:28;;;;;;;0.20;0.20;;;;;;;15.83;80.36;100216.25;5043706;28;20025;-61
2023/06/28 01:11:55;;;;;;;0.20;0.20;;;;;;;15.87;80.09;100219.63;5044862;28;20023;-61
2023/06/28 01:14:23;;;;;;;0.30;0.30;;;;;;;15.85;79.79;100211.81;5045265;28;20036;-62
2023/06/28 01:16:54;;;;;;;0.20;0.20;;;;;;;15.83;79.63;100210.19;5045339;28;20044;-62
2023/06/28 01:19:23;;;;;;;0.30;0.30;;;;;;;15.80;79.32;100208.50;5044948;28;20025;-62
2023/06/28 01:21:55;;;;;;;0.30;0.30;;;;;;;15.78;79.58;100214.72;5045505;28;20022;-62
2023/06/28 01:24:21;;;;;;;0.20;0.20;;;;;;;15.74;80.07;100227.03;5045217;28;20029;-62
2023/06/28 01:26:52;;;;;;;0.20;0.20;;;;;;;15.69;80.20;100214.09;5044859;28;20556;-62
2023/06/28 01:29:21;;;;;;;14.70;3.95;;;;;;;15.69;80.38;100218.47;5045059;28;20025;-62
2023/06/28 01:31:52;;;;;;;0.30;0.30;;;;;;;15.68;80.42;100224.63;5044976;28;20025;-62
2023/06/28 01:34:18;;;;;;;0.30;0.30;;;;;;;15.65;81.08;100220.34;5044771;28;20073;-62
2023/06/28 01:36:46;;;;;;;0.30;0.30;;;;;;;15.67;81.11;100218.53;5045139;28;20160;-62
2023/06/28 01:39:12;;;;;;;0.28;0.28;;;;;;;15.69;81.00;100227.19;5045006;28;20033;-62
2023/06/28 01:41:39;;;;;;;0.45;0.45;;;;;;;15.69;81.37;100215.84;5045057;28;20036;-62
2023/06/28 01:44:04;;;;;;;0.20;0.20;;;;;;;15.69;81.65;100210.63;5044926;28;20029;-62
2023/06/28 01:46:30;;;;;;;0.30;0.30;;;;;;;15.68;81.62;100204.53;5045007;28;20051;-62
2023/06/28 01:48:56;;;;;;;2.50;2.15;;;;;;;15.68;82.02;100204.53;5044676;28;20021;-62
2023/06/28 01:51:21;;;;;;;0.20;0.20;;;;;;;15.71;82.67;100208.81;5044933;28;20021;-62
2023/06/28 01:53:47;;;;;;;0.30;0.30;;;;;;;15.71;83.22;100214.03;5044834;28;20022;-62
2023/06/28 01:56:12;;;;;;;0.30;0.30;;;;;;;15.71;82.66;100214.03;5044757;28;20026;-62
2023/06/28 01:58:38;;;;;;;0.20;0.20;;;;;;;15.72;82.43;100213.13;5044647;28;20025;-63
2023/06/28 02:01:04;;;;;;;0.30;0.30;;;;;;;15.70;82.95;100209.72;5044803;28;20105;-62
2023/06/28 02:03:29;;;;;;;1.65;1.55;;;;;;;15.71;82.55;100206.19;5044433;28;20112;-62
2023/06/28 02:05:55;;;;;;;0.20;0.20;;;;;;;15.70;83.01;100201.88;5044876;28;20022;-63
2023/06/28 02:08:21;;;;;;;0.30;0.30;;;;;;;15.64;83.28;100205.53;5044664;28;20030;-61
2023/06/28 02:10:46;;;;;;;0.20;0.20;;;;;;;15.69;82.75;100205.38;5044239;28;20026;-62
2023/06/28 02:13:12;;;;;;;0.20;0.20;;;;;;;15.64;82.80;100204.69;5044650;28;20028;-63
2023/06/28 02:15:37;;;;;;;1.05;1.05;;;;;;;15.65;83.48;100211.63;5044768;28;20580;-62
2023/06/28 02:18:03;;;;;;;0.30;0.30;;;;;;;15.68;84.02;100209.78;5044656;28;20438;-62
2023/06/28 02:20:29;;;;;;;0.20;0.20;;;;;;;15.67;84.42;100205.44;5044494;28;20026;-62
2023/06/28 02:22:54;;;;;;;0.20;0.20;;;;;;;15.71;84.01;100217.53;5046419;28;20025;-62
2023/06/28 02:25:20;;;;;;;0.20;0.20;;;;;;;15.70;84.19;100222.81;5048421;28;20385;-62
2023/06/28 02:27:45;;;;;;;0.20;0.20;;;;;;;15.73;84.27;100210.47;5048271;28;20022;-62
2023/06/28 02:30:11;;;;;;;0.25;0.25;;;;;;;15.66;84.69;100210.72;5048006;28;20022;-62
2023/06/28 02:32:36;;;;;;;0.20;0.20;;;;;;;15.68;84.68;100217.63;5048071;28;20084;-62
2023/06/28 02:35:02;;;;;;;0.30;0.30;;;;;;;15.82;84.70;100224.16;5047859;28;20457;-62
2023/06/28 02:37:27;;;;;;;0.20;0.20;;;;;;;15.83;84.75;100218.88;5048216;28;20034;-62
2023/06/28 02:39:52;;;;;;;0.30;0.30;;;;;;;15.83;84.76;100218.88;5047869;28;20022;-62
2023/06/28 02:42:18;;;;;;;0.20;0.20;;;;;;;15.89;84.37;100223.06;5048112;28;20025;-62
2023/06/28 02:44:44;;;;;;;0.20;0.20;;;;;;;15.89;84.22;100214.34;5047762;28;20026;-61
2023/06/28 02:47:09;;;;;;;2.95;1.23;;;;;;;15.94;84.19;100225.53;5048079;28;20036;-62
2023/06/28 02:49:34;;;;;;;0.20;0.20;;;;;;;15.93;84.54;100219.41;5046353;28;20083;-62
2023/06/28 02:52:00;;;;;;;0.68;0.68;;;;;;;15.97;85.37;100223.66;5047944;28;20102;-62
2023/06/28 02:54:25;;;;;;;0.30;0.30;;;;;;;15.97;86.15;100221.03;5047591;28;20022;-62
2023/06/28 02:56:51;;;;;;;0.50;0.50;;;;;;;15.99;85.47;100221.00;5047860;28;20064;-62
2023/06/28 02:59:16;;;;;;;0.20;0.20;;;;;;;16.06;85.99;100229.50;5047780;28;20032;-63
2023/06/28 03:01:41;;;;;;;0.20;0.20;;;;;;;16.08;86.74;100233.78;5047675;28;20025;-63
2023/06/28 03:04:07;;;;;;;0.30;0.30;;;;;;;16.08;86.89;100223.31;5047537;28;20028;-62
2023/06/28 03:06:34;;;;;;;0.20;0.20;;;;;;;16.19;86.10;100224.69;5047854;28;20025;-62
2023/06/28 03:08:59;;;;;;;0.32;0.32;;;;;;;16.22;86.92;100220.22;5047567;28;20030;-62
2023/06/28 03:11:24;;;;;;;0.20;0.20;;;;;;;16.41;87.58;100230.03;5047475;28;20040;-60
2023/06/28 03:13:50;;;;;;;0.20;0.20;;;;;;;16.75;87.67;100234.94;5047429;28;20029;-61
2023/06/28 03:16:15;;;;;;;0.20;0.20;;;;;;;17.08;88.54;100232.88;5047483;28;20080;-61
2023/06/28 03:18:41;;;;;;;0.30;0.30;;;;;;;17.52;89.44;100232.94;5047197;28;20022;-61
2023/06/28 03:21:06;;;;;;;0.20;0.20;;;;;;;17.94;90.37;100233.84;5047186;28;20033;-62
2023/06/28 03:23:32;;;;;;;0.20;0.20;;;;;;;18.53;92.17;100235.75;5047234;28;20021;-62
2023/06/28 03:25:58;;;;;;;0.73;0.68;;;;;;;19.01;92.03;100236.19;5047240;28;20029;-61
2023/06/28 03:28:23;;;;;;;0.30;0.30;;;;;;;19.49;92.35;100234.91;5047262;28;20021;-61
2023/06/28 03:30:48;;;;;;;0.20;0.20;;;;;;;19.96;91.82;100241.34;5047119;28;20045;-61
2023/06/28 03:33:14;;;;;;;0.20;0.20;;;;;;;20.42;91.24;100247.84;5046411;28;20052;-60
2023/06/28 03:35:39;;;;;;;0.82;0.82;;;;;;;20.98;91.07;100244.91;5046973;28;20405;-61
2023/06/28 03:38:05;;;;;;;0.20;0.20;;;;;;;21.39;89.02;100235.59;5046993;28;20484;-62
2023/06/28 03:40:30;;;;;;;0.30;0.30;;;;;;;21.83;88.53;100241.09;5046882;28;20025;-62
2023/06/28 03:42:55;;;;;;;0.20;0.20;;;;;;;22.28;88.83;100238.41;5046957;28;20105;-62
2023/06/28 03:45:21;;;;;;;0.20;0.20;;;;;;;22.69;86.91;100245.72;5029052;28;20051;-62
2023/06/28 03:47:50;;;;;;;0.13;0.13;;;;;;;23.11;87.10;100248.41;5046760;28;20036;-63
2023/06/28 03:50:15;;;;;;;0.17;0.17;;;;;;;23.65;87.45;100241.44;5046611;28;20017;-61
2023/06/28 03:52:41;;;;;;;0.10;0.10;;;;;;;24.13;87.27;100245.31;5047010;28;20061;-62
2023/06/28 03:55:06;;;;;;;0.63;0.63;;;;;;;24.59;83.74;100248.41;5046605;28;20029;-63
2023/06/28 03:57:33;;;;;;;2.75;1.50;;;;;;;24.88;79.75;100243.69;5046640;28;20025;-63
2023/06/28 03:59:58;;;;;;;0.10;0.10;;;;;;;25.08;76.90;100251.22;5046794;28;20022;-63
2023/06/28 04:02:24;;;;;;;0.85;0.85;;;;;;;25.37;75.16;100246.41;5046620;28;20029;-63
2023/06/28 04:04:49;;;;;;;0.10;0.10;;;;;;;25.80;75.54;100246.00;5046441;28;20040;-64
2023/06/28 04:07:15;;;;;;;0.15;0.15;;;;;;;26.39;75.81;100246.84;5046512;28;20055;-63
2023/06/28 04:09:42;;;;;;;1.00;1.00;;;;;;;26.85;72.04;100241.50;5046173;28;20474;-63
2023/06/28 04:12:08;;;;;;;3.17;2.45;;;;;;;27.43;71.99;100244.91;5046522;28;20037;-63
2023/06/28 04:14:33;;;;;;;2.55;1.70;;;;;;;27.90;69.92;100244.56;5046383;28;20021;-64
2023/06/28 04:16:59;;;;;;;2.75;1.77;;;;;;;28.31;70.11;100236.66;5046510;28;20029;-63
2023/06/28 04:19:24;;;;;;;2.05;1.70;;;;;;;28.58;68.21;100242.38;5046038;28;20079;-64
2023/06/28 04:21:50;;;;;;;2.22;1.73;;;;;;;28.69;68.09;100242.28;5046213;28;20026;-62
2023/06/28 04:24:15;;;;;;;3.45;2.13;;;;;;;28.60;67.75;100240.44;5046030;28;20025;-63
2023/06/28 04:26:40;;;;;;;2.17;1.80;;;;;;;28.21;63.16;100254.44;5045923;28;20053;-63
2023/06/28 04:29:06;;;;;;;2.83;1.95;;;;;;;27.64;62.31;100246.72;5045958;28;20081;-63
2023/06/28 04:31:32;;;;;;;11.55;1.90;;;;;;;27.51;62.90;100244.25;5046046;28;20040;-64
2023/06/28 04:33:57;;;;;;;3.95;1.85;;;;;;;27.86;63.87;100248.47;5045539;28;20030;-63
2023/06/28 04:36:25;;;;;;;3.50;1.90;;;;;;;28.32;63.91;100237.53;5046054;28;20017;-63
2023/06/28 04:38:55;;;;;;;3.00;1.85;;;;;;;28.82;60.34;100249.22;5045880;28;20508;-63
2023/06/28 04:41:25;;;;;;;2.33;1.67;;;;;;;29.39;61.82;100243.28;5045846;28;20026;-63
2023/06/28 04:43:55;;;;;;;1.80;1.50;;;;;;;30.07;62.38;100246.03;5046130;28;20045;-62
2023/06/28 04:46:22;;;;;;;2.90;2.20;;;;;;;30.32;61.98;100241.06;5044973;28;20021;-64
2023/06/28 04:48:48;;;;;;;1.95;1.63;;;;;;;30.14;59.37;100248.97;5045765;28;20095;-63
2023/06/28 04:51:14;;;;;;;2.15;1.75;;;;;;;29.37;55.83;100247.94;5045840;28;20017;-63
2023/06/28 04:53:39;;;;;;;4.10;2.10;;;;;;;28.67;53.79;100252.28;5045877;28;20052;-64
2023/06/28 04:56:05;;;;;;;3.10;2.08;;;;;;;28.55;54.68;100256.00;5045688;28;20101;-63
2023/06/28 04:58:31;;;;;;;4.50;2.30;;;;;;;28.34;54.05;100246.22;5045793;28;20018;-63
2023/06/28 05:00:56;;;;;;;2.88;1.83;;;;;;;28.74;55.36;100247.22;5045244;28;20383;-63
2023/06/28 05:03:26;;;;;;;2.85;1.88;;;;;;;29.11;55.04;100252.97;5045427;28;20021;-64
2023/06/28 05:05:55;;;;;;;2.20;2.00;;;;;;;29.64;55.70;100251.75;5044161;28;20029;-62
2023/06/28 05:08:21;;;;;;;2.40;1.63;;;;;;;30.34;56.85;100255.13;5045357;28;20087;-62
2023/06/28 05:10:46;;;;;;;2.75;1.85;;;;;;;30.85;55.74;100262.81;5045343;28;20025;-61
2023/06/28 05:13:12;;;;;;;2.05;1.42;;;;;;;31.52;56.00;100268.88;5045371;28;20056;-62
2023/06/28 05:15:37;;;;;;;2.38;1.90;;;;;;;31.97;56.05;100271.59;5045283;28;20026;-62
2023/06/28 05:18:03;;;;;;;7.88;1.52;;;;;;;32.06;52.67;100272.50;5045341;28;20081;-62
2023/06/28 05:20:29;;;;;;;2.78;1.67;;;;;;;31.79;49.95;100265.25;5044893;28;20032;-61
2023/06/28 05:23:09;;;;;;;3.15;1.80;;;;;;;32.31;51.10;100261.91;5045360;28;20021;-62
2023/06/28 05:25:34;;;;;;;1.80;1.55;;;;;;;32.76;52.82;100262.63;5045166;28;20032;-62
2023/06/28 05:27:59;;;;;;;7.53;1.70;;;;;;;33.01;53.55;100258.16;5045186;28;20021;-62
2023/06/28 05:30:25;;;;;;;1.45;1.27;;;;;;;33.25;52.35;100263.75;5045144;28;20028;-61
2023/06/28 05:32:50;;;;;;;6.47;1.80;;;;;;;33.37;51.15;100262.44;5045309;28;20030;-62
2023/06/28 05:35:15;;;;;;;2.40;1.63;;;;;;;33.65;50.04;100265.81;5043223;28;20080;-61
2023/06/28 05:37:41;;;;;;;1.98;1.77;;;;;;;33.48;46.55;100263.13;5045120;28;20036;-62
2023/06/28 05:40:08;;;;;;;2.60;1.73;;;;;;;33.83;46.85;100268.34;5045072;28;20068;-62
2023/06/28 05:42:33;;;;;;;3.65;2.22;;;;;;;33.66;45.24;100265.66;5044960;28;20037;-61
2023/06/28 05:44:59;;;;;;;3.05;1.90;;;;;;;33.55;44.02;100266.81;5045020;28;20070;-60
2023/06/28 05:47:24;;;;;;;2.22;1.77;;;;;;;33.86;44.74;100270.69;5045172;28;20048;-62
2023/06/28 05:49:50;;;;;;;2.42;1.75;;;;;;;33.66;42.20;100270.22;5044985;28;20029;-63
2023/06/28 05:52:15;;;;;;;2.53;1.80;;;;;;;33.76;42.66;100273.56;5045076;28;20036;-62
2023/06/28 05:54:41;;;;;;;2.65;1.50;;;;;;;34.28;43.60;100274.19;5045091;28;20056;-63
2023/06/28 05:57:06;;;;;;;2.33;1.95;;;;;;;34.71;43.24;100279.28;5047072;28;20025;-63
2023/06/28 05:59:32;;;;;;;3.10;1.90;;;;;;;34.48;41.11;100273.75;5048939;28;20029;-61
2023/06/28 06:01:57;;;;;;;2.40;1.90;;;;;;;34.23;41.23;100281.94;5048683;28;20034;-63
2023/06/28 06:04:23;;;;;;;2.03;1.60;;;;;;;34.10;39.33;100283.28;5048600;28;20041;-62
2023/06/28 06:06:48;;;;;;;1.83;1.65;;;;;;;33.33;39.23;100282.59;5048815;28;20056;-62
2023/06/28 06:09:14;;;;;;;1.92;1.48;;;;;;;33.22;41.27;100282.94;5048648;28;20021;-62
2023/06/28 06:11:39;;;;;;;1.80;1.20;;;;;;;33.46;41.89;100279.44;5048703;28;20048;-62
2023/06/28 06:14:04;;;;;;;1.95;1.67;;;;;;;33.51;41.25;100290.53;5048710;28;20032;-63
2023/06/28 06:16:30;;;;;;;2.92;1.27;;;;;;;33.52;40.49;100291.34;5047329;28;20021;-62
2023/06/28 06:18:55;;;;;;;4.30;2.67;;;;;;;33.06;37.59;100300.69;5048271;28;20037;-62
2023/06/28 06:21:20;;;;;;;3.78;2.70;;;;;;;31.86;37.09;100303.03;5048474;28;20064;-63
2023/06/28 06:23:46;;;;;;;2.22;1.55;;;;;;;30.76;39.71;100302.06;5048403;28;20017;-62
2023/06/28 06:26:11;;;;;;;2.38;2.05;;;;;;;30.66;41.08;100311.97;5048300;28;20029;-61
2023/06/28 06:28:37;;;;;;;3.35;1.98;;;;;;;30.39;42.30;100310.94;5048365;28;20026;-63
2023/06/28 06:31:02;;;;;;;2.33;1.95;;;;;;;30.60;41.93;100308.03;5048308;28;20018;-62
2023/06/28 06:33:28;;;;;;;1.48;1.10;;;;;;;30.77;42.50;100308.25;5048456;28;20021;-60
2023/06/28 06:35:54;;;;;;;2.55;1.45;;;;;;;30.99;42.89;100309.72;5048108;28;20406;-62
2023/06/28 06:38:19;;;;;;;2.08;1.60;;;;;;;31.74;41.04;100312.34;5048173;28;20029;-61
2023/06/28 06:40:45;;;;;;;1.63;1.20;;;;;;;32.05;40.95;100306.56;5047949;28;20049;-61
2023/06/28 06:43:10;;;;;;;1.88;1.40;;;;;;;32.24;39.96;100308.19;5048402;28;20026;-63
2023/06/28 06:45:36;;;;;;;1.73;1.42;;;;;;;31.83;39.11;100307.88;5048101;28;20048;-62
2023/06/28 06:48:01;;;;;;;2.00;1.33;;;;;;;31.08;39.99;100309.81;5048177;28;20036;-62
2023/06/28 06:50:27;;;;;;;2.35;1.45;;;;;;;30.32;40.82;100304.47;5047637;28;20017;-62
2023/06/28 06:52:52;;;;;;;2.17;1.25;;;;;;;29.48;41.60;100308.44;5047964;28;20022;-62
2023/06/28 06:55:17;;;;;;;1.92;1.45;;;;;;;28.98;42.19;100312.84;5047958;28;20100;-61
2023/06/28 06:57:43;;;;;;;1.30;1.20;;;;;;;28.42;42.75;100315.81;5047900;28;20034;-62
2023/06/28 07:00:09;;;;;;;2.33;1.33;;;;;;;27.83;43.66;100310.91;5047836;28;20040;-63
2023/06/28 07:02:35;;;;;;;3.60;1.65;;;;;;;27.49;45.08;100311.03;5047728;28;20047;-61
2023/06/28 07:05:00;;;;;;;4.07;1.45;;;;;;;27.70;45.72;100321.75;5047730;28;20021;-62
2023/06/28 07:07:26;;;;;;;1.65;1.45;;;;;;;28.42;45.77;100318.50;5047563;28;20085;-62
2023/06/28 07:09:51;;;;;;;3.08;1.95;;;;;;;29.05;45.22;100311.34;5047149;28;20029;-61
2023/06/28 07:12:16;;;;;;;1.13;0.95;;;;;;;29.52;44.52;100317.88;5047712;28;20081;-62
2023/06/28 07:14:42;;;;;;;2.28;1.48;;;;;;;29.70;44.15;100325.22;5047623;28;20027;-62
2023/06/28 07:17:07;;;;;;;1.58;1.23;;;;;;;29.54;43.82;100325.75;5047318;28;20489;-62
2023/06/28 07:19:33;;;;;;;1.98;1.30;;;;;;;29.27;44.30;100329.94;5047255;28;20025;-62
2023/06/28 07:21:58;;;;;;;1.85;1.10;;;;;;;29.38;44.22;100319.13;5047274;28;20528;-63
2023/06/28 07:24:24;;;;;;;2.20;1.58;;;;;;;29.74;43.82;100323.97;5047362;28;20030;-63
2023/06/28 07:26:49;;;;;;;3.58;1.40;;;;;;;30.54;43.70;100330.88;5047295;28;20060;-62
2023/06/28 07:29:15;;;;;;;3.33;1.77;;;;;;;31.19;41.77;100335.56;5047433;28;20025;-62
2023/06/28 07:31:40;;;;;;;1.60;1.27;;;;;;;30.91;40.16;100333.75;5047189;28;20032;-63
2023/06/28 07:34:06;;;;;;;3.30;1.20;;;;;;;30.70;41.22;100336.63;5046849;28;20454;-61
2023/06/28 07:36:32;;;;;;;4.72;1.27;;;;;;;30.39;41.50;100329.66;5047270;28;20029;-62
2023/06/28 07:38:58;;;;;;;1.75;1.30;;;;;;;29.90;42.09;100328.75;5047142;28;20029;-61
2023/06/28 07:41:23;;;;;;;1.20;1.05;;;;;;;29.37;42.47;100333.47;5047019;28;20378;-61
2023/06/28 07:43:49;;;;;;;3.17;1.80;;;;;;;28.76;43.29;100341.41;5047155;28;20032;-62
2023/06/28 07:46:15;;;;;;;2.65;1.33;;;;;;;28.60;43.58;100335.72;5046876;28;20017;-62
2023/06/28 07:48:40;;;;;;;1.38;1.27;;;;;;;28.82;44.38;100324.00;5046660;28;20449;-61
2023/06/28 07:51:06;;;;;;;0.98;0.85;;;;;;;29.59;44.00;100325.34;5046860;28;20014;-62
2023/06/28 07:53:31;;;;;;;1.98;1.38;;;;;;;30.29;42.28;100332.38;5047099;28;20057;-62
2023/06/28 07:55:57;;;;;;;2.47;1.63;;;;;;;31.11;41.25;100333.63;5046864;28;20100;-62
2023/06/28 07:58:22;;;;;;;1.40;1.10;;;;;;;31.96;40.19;100340.56;5046854;28;20021;-63
2023/06/28 08:00:48;;;;;;;1.10;0.95;;;;;;;32.53;38.88;100333.06;5046533;28;20026;-62
2023/06/28 08:03:13;;;;;;;3.30;1.30;;;;;;;33.11;36.90;100335.19;5046900;28;20033;-63
2023/06/28 08:05:38;;;;;;;2.53;1.10;;;;;;;33.86;36.97;100324.53;5046392;28;20036;-63
2023/06/28 08:08:04;;;;;;;4.35;1.80;;;;;;;34.29;35.77;100323.50;5046523;28;20029;-63
2023/06/28 08:10:29;;;;;;;2.00;1.45;;;;;;;34.54;34.80;100320.75;5046454;28;20021;-63
2023/06/28 08:12:55;;;;;;;2.42;1.48;;;;;;;34.72;33.58;100326.75;5046551;28;20025;-63
2023/06/28 08:15:21;;;;;;;1.98;1.50;;;;;;;34.59;33.88;100321.03;5046401;28;20024;-60
2023/06/28 08:17:47;;;;;;;5.13;1.73;;;;;;;34.33;33.26;100331.06;5028642;28;20033;-63
2023/06/28 08:20:12;;;;;;;3.08;1.50;;;;;;;33.33;33.85;100336.41;5046045;28;20017;-63
2023/06/28 08:22:38;;;;;;;2.50;1.50;;;;;;;32.03;35.61;100338.09;5046320;28;20044;-63
2023/06/28 08:25:03;;;;;;;9.48;2.63;;;;;;;31.16;37.10;100328.66;5046294;28;20032;-58
2023/06/28 08:27:29;;;;;;;4.70;2.17;;;;;;;30.26;38.67;100332.66;5046428;28;20087;-62
2023/06/28 08:29:54;;;;;;;1.70;1.20;;;;;;;29.81;40.11;100337.59;5046080;28;20021;-62
2023/06/28 08:32:20;;;;;;;2.00;1.40;;;;;;;29.52;40.30;100335.75;5046145;28;20032;-63
2023/06/28 08:34:46;;;;;;;4.63;1.88;;;;;;;28.98;40.75;100339.56;5045755;28;20077;-62
2023/06/28 08:37:12;;;;;;;1.83;1.15;;;;;;;28.39;41.50;100356.13;5046225;28;20025;-63
2023/06/28 08:39:38;;;;;;;1.83;1.33;;;;;;;27.92;42.60;100364.47;5045963;28;20032;-63
2023/06/28 08:42:04;;;;;;;2.80;1.15;;;;;;;27.64;42.79;100350.72;5045908;28;20024;-63
2023/06/28 08:44:32;;;;;;;1.80;1.60;;;;;;;27.32;43.20;100357.69;5046007;28;20034;-62
2023/06/28 08:46:58;;;;;;;2.13;1.63;;;;;;;27.18;44.12;100364.13;5045949;28;20029;-63
2023/06/28 08:49:24;;;;;;;2.53;1.40;;;;;;;28.21;43.70;100358.53;5045585;28;20025;-61
2023/06/28 08:51:50;;;;;;;2.85;1.70;;;;;;;29.29;42.25;100354.72;5045774;28;20060;-63
2023/06/28 08:54:15;;;;;;;2.80;1.75;;;;;;;30.38;40.80;100360.13;5045791;28;20017;-62
2023/06/28 08:56:41;;;;;;;1.70;1.30;;;;;;;31.48;40.19;100362.22;5045576;28;20036;-62
2023/06/28 08:59:10;;;;;;;2.22;1.52;;;;;;;32.51;37.90;100370.00;5045638;28;20029;-62
2023/06/28 09:01:38;;;;;;;2.78;1.75;;;;;;;33.46;36.15;100361.97;5045560;28;20075;-63
2023/06/28 09:04:04;;;;;;;2.20;1.30;;;;;;;33.85;35.91;100356.00;5045436;28;20529;-62
2023/06/28 09:06:30;;;;;;;2.83;1.70;;;;;;;33.75;36.28;100360.72;5045493;28;20030;-62
2023/06/28 09:08:56;;;;;;;1.40;1.17;;;;;;;33.23;37.27;100362.63;5045581;28;20032;-63
2023/06/28 09:11:21;;;;;;;3.58;1.38;;;;;;;33.27;36.94;100355.91;5045549;28;20025;-63
2023/06/28 09:13:48;;;;;;;2.90;1.35;;;;;;;33.77;36.21;100355.16;5045781;28;20164;-64
2023/06/28 09:16:14;;;;;;;3.90;1.70;;;;;;;34.51;35.21;100359.63;5045315;28;20017;-62
2023/06/28 09:18:39;;;;;;;5.72;1.70;;;;;;;34.29;34.92;100361.22;5045398;28;20025;-59
2023/06/28 09:21:05;;;;;;;2.42;1.42;;;;;;;33.59;35.05;100356.97;5045214;28;20029;-63
2023/06/28 09:23:33;;;;;;;1.70;0.85;;;;;;;32.74;34.81;100369.44;5045391;28;20033;-63
2023/06/28 09:25:58;;;;;;;1.67;1.17;;;;;;;32.18;35.68;100367.03;5045285;28;20043;-63
2023/06/28 09:28:33;;;;;;;3.75;2.03;;;;;;;32.45;36.17;100366.06;5045451;28;20100;-63
2023/06/28 09:31:00;;;;;;;3.97;1.88;;;;;;;32.95;35.46;100362.81;5044768;28;20077;-62
2023/06/28 09:33:26;;;;;;;3.83;1.92;;;;;;;32.75;34.73;100353.16;5045385;28;20040;-63
2023/06/28 09:35:58;;;;;;;2.53;1.52;;;;;;;31.53;36.19;100368.00;5044887;28;20045;-63
2023/06/28 09:38:25;;;;;;;2.00;1.65;;;;;;;30.45;37.86;100369.25;5045146;28;20120;-61
2023/06/28 09:41:01;;;;;;;2.72;1.38;;;;;;;29.56;39.35;100367.44;5044788;28;20378;-62
2023/06/28 09:43:34;;;;;;;3.65;1.52;;;;;;;29.54;39.92;100373.88;5045201;28;20485;-62
2023/06/28 09:46:17;;;;;;;3.22;1.45;;;;;;;29.20;40.90;100367.06;5045123;28;20033;-62
2023/06/28 09:48:52;;;;;;;2.83;1.63;;;;;;;28.93;42.14;100380.00;5044883;28;20027;-61
2023/06/28 09:51:18;;;;;;;2.53;1.52;;;;;;;29.12;42.44;100373.09;5045038;28;20502;-61
2023/06/28 09:53:52;;;;;;;4.85;1.98;;;;;;;29.38;42.25;100372.59;5045080;28;20026;-62
2023/06/28 09:56:18;;;;;;;2.80;1.52;;;;;;;30.24;41.13;100378.31;5044829;28;20083;-62
2023/06/28 09:58:48;;;;;;;3.88;2.17;;;;;;;30.77;39.86;100380.59;5044896;28;20017;-62
2023/06/28 10:01:17;;;;;;;6.28;1.70;;;;;;;31.25;39.46;100369.81;5044767;28;20385;-61
2023/06/28 10:03:44;;;;;;;2.85;1.88;;;;;;;31.71;38.29;100363.63;5044827;28;20029;-61
2023/06/28 10:06:10;;;;;;;3.13;1.73;;;;;;;32.26;37.85;100377.84;5044851;28;20021;-62
2023/06/28 10:08:36;;;;;;;3.78;1.60;;;;;;;32.66;37.51;100375.63;5044695;28;20026;-61
2023/06/28 10:11:08;;;;;;;1.95;1.33;;;;;;;33.09;35.73;100372.13;5044586;28;20025;-62
2023/06/28 10:13:34;;;;;;;2.05;1.45;;;;;;;33.10;35.58;100373.84;5044711;28;20076;-63
2023/06/28 10:16:09;;;;;;;3.85;1.13;;;;;;;33.25;35.39;100376.72;5044665;28;20045;-62
2023/06/28 10:18:34;;;;;;;3.28;1.88;;;;;;;33.11;34.53;100371.00;5027164;28;20049;-62
2023/06/28 10:21:00;;;;;;;6.32;1.40;;;;;;;33.01;34.93;100371.09;5044318;28;20025;-61
2023/06/28 10:23:26;;;;;;;1.40;1.02;;;;;;;33.06;34.29;100369.75;5044891;28;20030;-62
2023/06/28 10:25:54;;;;;;;4.70;1.42;;;;;;;32.98;35.09;100368.72;5044825;28;20021;-62
2023/06/28 10:28:20;;;;;;;3.42;2.08;;;;;;;33.47;34.60;100367.19;5044943;28;20052;-62
2023/06/28 10:30:46;;;;;;;1.77;1.25;;;;;;;33.39;35.12;100372.56;5044551;28;20029;-63
2023/06/28 10:33:17;;;;;;;8.85;2.33;;;;;;;33.59;34.44;100375.81;5044755;28;20025;-62
2023/06/28 10:35:44;;;;;;;2.38;1.40;;;;;;;33.67;34.14;100371.47;5044288;28;20049;-63
2023/06/28 10:38:10;;;;;;;2.03;0.93;;;;;;;33.83;33.46;100366.09;5044795;28;20080;-63
2023/06/28 10:40:37;;;;;;;1.40;1.00;;;;;;;33.83;32.47;100363.41;5044535;28;20029;-63
2023/06/28 10:43:03;;;;;;;1.10;0.95;;;;;;;33.50;32.79;100369.56;5044880;28;20044;-62
2023/06/28 10:45:35;;;;;;;3.97;1.15;;;;;;;33.26;33.05;100362.28;5048113;28;20028;-60
2023/06/28 10:48:02;;;;;;;3.97;1.40;;;;;;;33.16;33.65;100373.19;5048495;28;20436;-63
2023/06/28 10:50:28;;;;;;;1.63;0.93;;;;;;;33.10;34.21;100365.78;5047852;28;20040;-63
2023/06/28 10:52:55;;;;;;;1.83;1.10;;;;;;;33.14;33.82;100364.44;5048001;28;20017;-62
2023/06/28 10:55:28;;;;;;;3.33;1.50;;;;;;;33.32;33.48;100355.41;5047712;28;20421;-62
2023/06/28 10:58:08;;;;;;;3.88;1.38;;;;;;;32.55;33.31;100365.13;5047959;28;20030;-63
2023/06/28 11:00:36;;;;;;;2.35;1.00;;;;;;;31.34;35.05;100368.06;5047865;28;20032;-63
2023/06/28 11:03:04;;;;;;;1.20;1.00;;;;;;;30.59;36.56;100351.91;5047938;28;20033;-63
2023/06/28 11:05:36;;;;;;;1.83;1.17;;;;;;;30.03;37.33;100362.41;5047521;28;20085;-64
2023/06/28 11:08:11;;;;;;;1.13;0.90;;;;;;;29.48;38.04;100374.44;5047846;28;20048;-62
2023/06/28 11:10:38;;;;;;;1.63;1.02;;;;;;;28.82;38.73;100372.94;5047795;28;20056;-62
2023/06/28 11:13:07;;;;;;;1.40;1.20;;;;;;;28.13;39.31;100371.66;5047652;28;20104;-62
2023/06/28 11:15:34;;;;;;;1.10;0.90;;;;;;;27.50;40.94;100365.16;5047714;28;20031;-63
2023/06/28 11:18:10;;;;;;;5.30;1.38;;;;;;;26.96;42.03;100368.50;5047787;28;20081;-62
2023/06/28 11:20:57;;;;;;;1.20;0.82;;;;;;;26.70;42.32;100372.22;5047276;28;20359;-63